createdAt,value
2018-07-03T00:00:53.418Z,81.50
2018-07-03T00:03:23.046Z,82.40
2018-07-03T00:05:51.618Z,84.10
2018-07-03T00:08:20.090Z,84.00
2018-07-03T00:10:48.600Z,84.50
2018-07-03T00:13:17.189Z,84.90
2018-07-03T00:15:45.653Z,85.30
2018-07-03T00:18:14.174Z,86.50
2018-07-03T00:20:42.682Z,87.00
2018-07-03T00:25:39.333Z,87.40
2018-07-03T00:28:07.860Z,88.10
2018-07-03T00:30:36.325Z,89.00
2018-07-03T00:33:04.886Z,90.10
2018-07-03T00:35:33.414Z,90.00
2018-07-03T00:38:02.036Z,89.80
2018-07-03T00:40:30.584Z,90.00
2018-07-03T00:42:59.067Z,90.10
2018-07-03T00:45:27.594Z,90.20
2018-07-03T00:47:56.266Z,90.10
2018-07-03T00:50:25.095Z,90.10
2018-07-03T00:52:53.597Z,90.70
2018-07-03T00:55:22.142Z,90.90
2018-07-03T00:57:50.639Z,90.70
2018-07-03T01:00:33.026Z,91.00
2018-07-03T01:03:02.222Z,91.00
2018-07-03T01:05:30.702Z,91.30
2018-07-03T01:07:59.280Z,91.70
2018-07-03T01:10:28.206Z,92.30
2018-07-03T01:12:57.107Z,92.70
2018-07-03T01:15:26.587Z,92.90
2018-07-03T01:17:55.161Z,92.90
2018-07-03T01:20:23.654Z,92.90
2018-07-03T01:22:52.626Z,93.20
2018-07-03T01:25:21.218Z,93.20
2018-07-03T01:27:49.691Z,93.10
2018-07-03T01:30:18.223Z,93.20
2018-07-03T01:32:46.686Z,93.30
2018-07-03T01:35:15.127Z,93.60
2018-07-03T01:37:43.739Z,93.70
2018-07-03T01:40:12.183Z,93.70
2018-07-03T01:42:40.757Z,93.70
2018-07-03T01:47:37.394Z,93.60
2018-07-03T01:50:05.931Z,93.80
2018-07-03T01:52:34.662Z,94.20
2018-07-03T01:55:03.233Z,94.20
2018-07-03T01:57:31.685Z,94.10
2018-07-03T02:00:00.210Z,94.20
2018-07-03T02:02:28.682Z,94.10
2018-07-03T02:04:57.141Z,94.10
2018-07-03T02:07:25.630Z,94.30
2018-07-03T02:09:54.058Z,94.20
2018-07-03T02:12:22.512Z,94.30
2018-07-03T02:14:51.065Z,94.80
2018-07-03T02:17:19.512Z,95.10
2018-07-03T02:19:48.041Z,95.30
2018-07-03T02:22:16.546Z,95.30
2018-07-03T02:24:44.993Z,95.70
2018-07-03T02:27:13.471Z,96.00
2018-07-03T02:29:41.974Z,96.00
2018-07-03T02:32:10.450Z,96.10
2018-07-03T02:34:39.027Z,96.00
2018-07-03T02:37:07.560Z,96.10
2018-07-03T02:39:36.046Z,96.00
2018-07-03T02:42:04.563Z,95.80
2018-07-03T02:44:33.041Z,95.90
2018-07-03T02:47:01.498Z,96.00
2018-07-03T02:49:29.989Z,96.00
2018-07-03T02:51:58.511Z,95.90
2018-07-03T02:54:26.962Z,95.80
2018-07-03T02:56:55.393Z,95.60
2018-07-03T02:59:24.028Z,95.60
2018-07-03T03:01:52.486Z,95.60
2018-07-03T03:04:21.127Z,95.70
2018-07-03T03:06:49.649Z,95.80
2018-07-03T03:09:18.099Z,95.80
2018-07-03T03:11:46.622Z,96.00
2018-07-03T03:14:15.154Z,96.00
2018-07-03T03:16:43.622Z,96.00
2018-07-03T03:19:12.118Z,95.90
2018-07-03T03:21:40.618Z,96.00
2018-07-03T03:24:09.088Z,95.90
2018-07-03T03:26:37.679Z,96.10
2018-07-03T03:29:06.234Z,96.40
2018-07-03T03:31:34.714Z,96.60
2018-07-03T03:34:03.170Z,96.80
2018-07-03T03:36:31.682Z,97.30
2018-07-03T03:39:00.163Z,97.10
2018-07-03T03:41:28.896Z,97.40
2018-07-03T03:43:57.354Z,97.40
2018-07-03T03:46:25.805Z,97.70
2018-07-03T03:48:54.254Z,97.90
2018-07-03T03:51:22.729Z,98.10
2018-07-03T03:53:51.184Z,98.80
2018-07-03T03:56:19.659Z,99.40
2018-07-03T03:58:48.141Z,99.80
2018-07-03T04:01:16.714Z,99.90
2018-07-03T04:03:45.179Z,99.90
2018-07-03T04:06:13.727Z,99.90
2018-07-03T04:08:42.278Z,99.90
2018-07-03T04:11:10.946Z,99.90
2018-07-03T04:13:39.449Z,99.90
2018-07-03T04:16:07.964Z,99.90
2018-07-03T04:18:36.606Z,99.90
2018-07-03T04:21:06.342Z,99.90
2018-07-03T04:23:35.945Z,99.90
2018-07-03T04:26:04.498Z,99.90
2018-07-03T04:28:33.788Z,99.90
2018-07-03T04:31:02.821Z,99.90
2018-07-03T04:33:31.335Z,99.90
2018-07-03T04:36:00.044Z,99.90
2018-07-03T04:38:28.525Z,99.90
2018-07-03T04:40:57.030Z,99.90
2018-07-03T04:43:25.514Z,99.90
2018-07-03T04:45:54.122Z,99.90
2018-07-03T04:48:22.630Z,99.90
2018-07-03T04:50:51.165Z,99.90
2018-07-03T04:53:19.654Z,99.50
2018-07-03T04:55:48.111Z,99.10
2018-07-03T04:58:16.592Z,98.60
2018-07-03T05:00:45.044Z,98.20
2018-07-03T05:03:13.570Z,97.70
2018-07-03T05:05:42.138Z,97.40
2018-07-03T05:08:10.626Z,96.80
2018-07-03T05:10:39.076Z,96.40
2018-07-03T05:13:07.559Z,96.00
2018-07-03T05:15:36.030Z,95.40
2018-07-03T05:18:04.532Z,95.00
2018-07-03T05:20:33.042Z,94.80
2018-07-03T05:23:01.542Z,94.40
2018-07-03T05:25:29.979Z,93.70
2018-07-03T05:27:58.510Z,93.50
2018-07-03T05:30:26.938Z,93.50
2018-07-03T05:32:55.442Z,93.20
2018-07-03T05:35:24.018Z,93.20
2018-07-03T05:37:52.469Z,93.20
2018-07-03T05:40:21.015Z,92.90
2018-07-03T05:42:49.537Z,92.60
2018-07-03T05:45:17.982Z,92.60
2018-07-03T05:47:46.430Z,92.30
2018-07-03T05:50:14.951Z,92.10
2018-07-03T05:52:43.577Z,92.10
2018-07-03T05:55:12.006Z,91.70
2018-07-03T05:57:40.502Z,91.30
2018-07-03T06:00:08.975Z,91.00
2018-07-03T06:02:37.441Z,91.10
2018-07-03T06:05:05.982Z,90.90
2018-07-03T06:07:34.436Z,90.80
2018-07-03T06:10:03.074Z,90.40
2018-07-03T06:12:31.533Z,90.50
2018-07-03T06:14:59.982Z,89.80
2018-07-03T06:17:28.598Z,87.80
2018-07-03T06:19:57.106Z,87.00
2018-07-03T06:22:25.564Z,86.00
2018-07-03T06:24:54.110Z,85.30
2018-07-03T06:27:22.666Z,85.40
2018-07-03T06:29:51.133Z,85.50
2018-07-03T06:32:19.578Z,85.10
2018-07-03T06:34:48.353Z,85.50
2018-07-03T06:37:16.863Z,84.90
2018-07-03T06:39:45.477Z,84.60
2018-07-03T06:42:13.959Z,83.40
2018-07-03T06:44:42.412Z,82.30
2018-07-03T06:47:10.895Z,80.30
2018-07-03T06:49:39.623Z,79.20
2018-07-03T06:52:08.122Z,77.40
2018-07-03T06:54:36.576Z,75.80
2018-07-03T06:57:05.078Z,76.70
2018-07-03T06:59:33.560Z,76.40
2018-07-03T07:02:02.295Z,75.60
2018-07-03T07:04:30.768Z,74.20
2018-07-03T07:06:59.228Z,73.60
2018-07-03T07:09:27.743Z,72.50
2018-07-03T07:11:56.273Z,70.50
2018-07-03T07:14:24.754Z,68.60
2018-07-03T07:16:53.369Z,69.30
2018-07-03T07:19:21.885Z,67.50
2018-07-03T07:21:50.387Z,67.70
2018-07-03T07:24:18.850Z,66.00
2018-07-03T07:26:47.751Z,64.00
2018-07-03T07:29:16.219Z,64.50
2018-07-03T07:31:44.821Z,65.80
2018-07-03T07:36:40.977Z,64.90
2018-07-03T07:39:11.322Z,67.60
2018-07-03T07:41:40.173Z,68.10
2018-07-03T07:44:09.563Z,67.00
2018-07-03T07:46:38.126Z,66.40
2018-07-03T07:49:07.146Z,65.60
2018-07-03T07:51:35.607Z,63.70
2018-07-03T07:55:33.347Z,63.90
2018-07-03T07:58:02.022Z,62.40
2018-07-03T08:00:30.554Z,62.60
2018-07-03T08:02:59.158Z,62.00
2018-07-03T08:05:27.605Z,62.50
2018-07-03T08:07:56.111Z,64.30
2018-07-03T08:10:24.622Z,63.60
2018-07-03T08:12:53.078Z,64.90
2018-07-03T08:15:21.570Z,63.70
2018-07-03T08:17:50.065Z,61.10
2018-07-03T08:20:18.551Z,58.30
2018-07-03T08:22:47.035Z,56.10
2018-07-03T08:25:15.559Z,55.60
2018-07-03T08:27:44.099Z,54.40
2018-07-03T08:30:12.583Z,54.50
2018-07-03T08:32:41.091Z,54.00
2018-07-03T08:35:09.564Z,51.90
2018-07-03T08:37:38.060Z,51.60
2018-07-03T08:40:07.391Z,52.50
2018-07-03T08:42:36.294Z,54.30
2018-07-03T08:45:05.459Z,54.30
2018-07-03T08:47:34.050Z,53.40
2018-07-03T08:50:02.586Z,53.20
2018-07-03T08:52:31.050Z,52.30
2018-07-03T08:54:59.629Z,51.50
2018-07-03T08:57:28.170Z,52.20
2018-07-03T08:59:56.653Z,51.70
2018-07-03T09:02:25.178Z,52.50
2018-07-03T09:04:53.616Z,53.20
2018-07-03T09:07:22.059Z,53.70
2018-07-03T09:09:50.526Z,52.10
2018-07-03T09:12:19.075Z,51.60
2018-07-03T09:14:47.527Z,52.10
2018-07-03T09:17:31.339Z,52.70
2018-07-03T09:20:00.946Z,51.50
2018-07-03T09:22:29.938Z,51.80
2018-07-03T09:24:58.426Z,51.80
2018-07-03T09:29:55.146Z,50.80
2018-07-03T09:32:23.641Z,50.90
2018-07-03T09:34:52.090Z,49.40
2018-07-03T09:37:20.582Z,50.10
2018-07-03T09:39:49.050Z,50.20
2018-07-03T09:42:17.470Z,49.20
2018-07-03T09:44:45.967Z,49.70
2018-07-03T09:47:14.501Z,50.20
2018-07-03T09:49:42.950Z,48.80
2018-07-03T09:52:11.394Z,48.40
2018-07-03T09:54:39.925Z,47.40
2018-07-03T09:57:08.450Z,48.80
2018-07-03T09:59:36.902Z,49.00
2018-07-03T10:02:05.795Z,47.70
2018-07-03T10:04:34.225Z,45.90
2018-07-03T10:07:02.713Z,45.40
2018-07-03T10:09:31.190Z,43.20
2018-07-03T10:11:59.651Z,44.00
2018-07-03T10:14:28.086Z,44.40
2018-07-03T10:16:56.585Z,43.00
2018-07-03T10:19:25.028Z,41.30
2018-07-03T10:21:53.479Z,39.70
2018-07-03T10:24:22.023Z,41.30
2018-07-03T10:26:50.469Z,44.00
2018-07-03T10:29:18.901Z,42.70
2018-07-03T10:31:47.534Z,41.90
2018-07-03T10:34:16.138Z,41.30
2018-07-03T10:39:13.269Z,39.90
2018-07-03T10:41:41.767Z,41.20
2018-07-03T10:44:10.206Z,41.80
2018-07-03T10:46:38.831Z,42.40
2018-07-03T10:49:07.334Z,41.50
2018-07-03T10:51:35.814Z,39.70
2018-07-03T10:54:04.415Z,41.00
2018-07-03T10:56:32.865Z,40.40
2018-07-03T10:59:01.319Z,39.40
2018-07-03T11:01:29.863Z,39.80
2018-07-03T11:03:58.446Z,39.50
2018-07-03T11:06:26.912Z,39.30
2018-07-03T11:08:55.530Z,39.30
2018-07-03T11:11:24.066Z,37.40
2018-07-03T11:13:52.510Z,37.60
2018-07-03T11:16:21.003Z,37.50
2018-07-03T11:18:49.462Z,37.30
2018-07-03T11:21:18.062Z,36.40
2018-07-03T11:23:46.679Z,37.70
2018-07-03T11:26:15.227Z,35.70
2018-07-03T11:28:43.679Z,36.00
2018-07-03T11:31:12.190Z,37.00
2018-07-03T11:33:40.703Z,38.50
2018-07-03T11:36:09.310Z,36.20
2018-07-03T11:38:37.806Z,36.90
2018-07-03T11:41:06.344Z,36.60
2018-07-03T11:43:34.769Z,38.20
2018-07-03T11:46:03.297Z,38.00
2018-07-03T11:48:31.730Z,38.10
2018-07-03T11:51:00.194Z,35.30
2018-07-03T11:53:28.741Z,36.10
2018-07-03T11:55:57.222Z,37.10
2018-07-03T11:58:25.758Z,38.10
2018-07-03T12:00:54.249Z,36.90
2018-07-03T12:03:22.722Z,34.80
2018-07-03T12:05:51.199Z,34.90
2018-07-03T12:08:19.706Z,36.20
2018-07-03T12:10:48.178Z,37.40
2018-07-03T12:13:16.626Z,36.40
2018-07-03T12:15:45.159Z,37.90
2018-07-03T12:18:18.982Z,37.70
2018-07-03T12:20:47.534Z,38.60
2018-07-03T12:23:15.994Z,38.00
2018-07-03T12:25:44.567Z,37.00
2018-07-03T12:28:13.079Z,37.20
2018-07-03T12:30:41.514Z,36.50
2018-07-03T12:33:09.958Z,35.80
2018-07-03T12:35:38.511Z,36.10
2018-07-03T12:38:06.914Z,35.40
2018-07-03T12:40:35.342Z,34.00
2018-07-03T12:43:03.898Z,35.70
2018-07-03T12:45:32.355Z,34.00
2018-07-03T12:48:00.819Z,35.40
2018-07-03T12:50:29.347Z,33.90
2018-07-03T12:52:57.902Z,34.10
2018-07-03T12:55:26.339Z,33.00
2018-07-03T12:57:54.894Z,34.40
2018-07-03T13:00:23.358Z,32.80
2018-07-03T13:02:51.815Z,32.70
2018-07-03T13:05:20.450Z,31.70
2018-07-03T13:07:49.025Z,31.80
2018-07-03T13:10:17.467Z,30.90
2018-07-03T13:12:45.930Z,30.40
2018-07-03T13:15:14.390Z,30.00
2018-07-03T13:17:42.839Z,29.20
2018-07-03T13:20:11.370Z,28.10
2018-07-03T13:22:39.836Z,29.30
2018-07-03T13:25:10.455Z,28.30
2018-07-03T13:27:38.976Z,29.60
2018-07-03T13:30:08.203Z,29.30
2018-07-03T13:32:36.690Z,29.70
2018-07-03T13:35:05.902Z,28.40
2018-07-03T13:37:34.338Z,27.60
2018-07-03T13:40:02.796Z,26.70
2018-07-03T13:42:31.318Z,27.80
2018-07-03T13:44:59.782Z,26.90
2018-07-03T13:47:28.233Z,26.80
2018-07-03T13:49:56.714Z,26.50
2018-07-03T13:52:25.241Z,26.50
2018-07-03T13:54:53.674Z,27.40
2018-07-03T13:57:22.270Z,27.20
2018-07-03T13:59:50.754Z,25.70
2018-07-03T14:02:19.242Z,26.20
2018-07-03T14:04:47.734Z,26.70
2018-07-03T14:07:16.206Z,28.20
2018-07-03T14:09:44.678Z,27.60
2018-07-03T14:12:13.187Z,28.10
2018-07-03T14:14:41.626Z,27.70
2018-07-03T14:17:10.098Z,27.90
2018-07-03T14:19:38.591Z,29.10
2018-07-03T14:22:07.188Z,29.10
2018-07-03T14:24:35.609Z,29.40
2018-07-03T14:27:04.442Z,29.20
2018-07-03T14:29:32.954Z,29.10
2018-07-03T14:32:01.414Z,29.30
2018-07-03T14:34:29.879Z,30.20
2018-07-03T14:36:58.337Z,29.70
2018-07-03T14:39:27.647Z,30.50
2018-07-03T14:41:56.162Z,30.80
2018-07-03T14:44:24.593Z,30.70
2018-07-03T14:46:53.044Z,31.10
2018-07-03T14:49:21.569Z,30.40
2018-07-03T14:51:49.997Z,30.60
2018-07-03T14:54:18.437Z,30.70
2018-07-03T14:56:46.943Z,30.90
2018-07-03T14:59:15.483Z,31.20
2018-07-03T15:01:43.906Z,29.50
2018-07-03T15:04:12.382Z,30.00
2018-07-03T15:06:40.983Z,30.50
2018-07-03T15:09:11.399Z,29.70
2018-07-03T15:11:40.124Z,29.90
2018-07-03T15:14:08.691Z,29.10
2018-07-03T15:16:37.266Z,29.40
2018-07-03T15:19:11.234Z,30.00
2018-07-03T15:21:39.695Z,28.70
2018-07-03T15:24:08.785Z,28.70
2018-07-03T15:26:39.216Z,28.90
2018-07-03T15:29:07.746Z,28.30
2018-07-03T15:31:36.222Z,28.40
2018-07-03T15:34:04.806Z,29.00
2018-07-03T15:36:33.310Z,28.70
2018-07-03T15:39:01.836Z,27.90
2018-07-03T15:41:30.380Z,28.00
2018-07-03T15:44:10.040Z,28.30
2018-07-03T15:46:38.562Z,28.20
2018-07-03T15:49:07.090Z,27.20
2018-07-03T15:51:35.568Z,27.00
2018-07-03T15:54:04.325Z,27.40
2018-07-03T15:56:32.888Z,26.90
2018-07-03T15:59:01.349Z,26.40
2018-07-03T16:01:29.900Z,26.60
2018-07-03T16:04:10.073Z,25.00
2018-07-03T16:06:53.554Z,24.30
2018-07-03T16:09:22.083Z,23.60
2018-07-03T16:11:50.558Z,23.30
2018-07-03T16:14:19.111Z,22.60
2018-07-03T16:16:47.598Z,22.80
2018-07-03T16:19:21.216Z,22.80
2018-07-03T16:21:49.694Z,22.10
2018-07-03T16:24:18.152Z,21.70
2018-07-03T16:26:46.729Z,21.30
2018-07-03T16:29:15.226Z,21.10
2018-07-03T16:31:43.718Z,21.20
2018-07-03T16:34:12.332Z,20.80
2018-07-03T16:36:40.798Z,20.80
2018-07-03T16:39:11.051Z,21.10
2018-07-03T16:41:39.991Z,20.90
2018-07-03T16:44:09.214Z,21.00
2018-07-03T16:46:37.692Z,20.90
2018-07-03T16:49:06.344Z,20.90
2018-07-03T16:51:34.778Z,20.60
2018-07-03T16:54:03.242Z,20.30
2018-07-03T16:56:31.782Z,20.60
2018-07-03T16:59:00.241Z,20.70
2018-07-03T17:01:28.707Z,20.50
2018-07-03T17:03:57.214Z,20.30
2018-07-03T17:06:25.679Z,20.90
2018-07-03T17:08:54.179Z,20.70
2018-07-03T17:11:22.733Z,20.70
2018-07-03T17:13:51.296Z,21.00
2018-07-03T17:16:19.755Z,21.00
2018-07-03T17:18:53.394Z,20.80
2018-07-03T17:21:21.826Z,21.10
2018-07-03T17:23:50.270Z,21.40
2018-07-03T17:26:18.738Z,21.20
2018-07-03T17:28:47.176Z,20.90
2018-07-03T17:31:15.629Z,20.90
2018-07-03T17:33:44.146Z,20.80
2018-07-03T17:36:13.132Z,20.70
2018-07-03T17:38:41.554Z,20.90
2018-07-03T17:41:21.115Z,21.10
2018-07-03T17:46:03.065Z,21.60
2018-07-03T17:48:31.570Z,21.50
2018-07-03T17:51:00.130Z,21.20
2018-07-03T18:00:13.138Z,21.90
2018-07-03T18:02:41.714Z,23.00
2018-07-03T18:05:10.316Z,23.80
2018-07-03T18:07:39.058Z,25.30
2018-07-03T18:10:07.522Z,26.70
2018-07-03T18:12:36.159Z,27.30
2018-07-03T18:15:04.786Z,28.30
2018-07-03T18:17:33.261Z,29.00
2018-07-03T18:20:01.817Z,29.20
2018-07-03T18:22:30.224Z,30.30
2018-07-03T18:24:58.803Z,30.80
2018-07-03T18:27:27.232Z,31.20
2018-07-03T18:29:56.079Z,30.90
2018-07-03T18:32:24.814Z,31.40
2018-07-03T18:34:53.266Z,31.90
2018-07-03T18:37:21.766Z,32.50
2018-07-03T18:39:50.216Z,32.90
2018-07-03T18:42:18.655Z,33.60
2018-07-03T18:44:47.246Z,33.90
2018-07-03T18:47:16.129Z,34.30
2018-07-03T18:49:44.729Z,35.20
2018-07-03T18:52:13.231Z,36.60
2018-07-03T18:54:41.750Z,36.80
2018-07-03T18:57:10.175Z,37.50
2018-07-03T18:59:38.706Z,37.50
2018-07-03T19:02:07.858Z,38.10
2018-07-03T19:04:36.430Z,38.50
2018-07-03T19:07:05.134Z,38.70
2018-07-03T19:09:33.738Z,39.00
2018-07-03T19:12:02.184Z,39.70
2018-07-03T19:14:30.786Z,39.90
2018-07-03T19:16:59.235Z,40.10
2018-07-03T19:19:27.717Z,40.30
2018-07-03T19:21:56.207Z,40.30
2018-07-03T19:24:24.698Z,40.60
2018-07-03T19:26:53.150Z,40.90
2018-07-03T19:29:21.710Z,41.30
2018-07-03T19:31:50.162Z,41.30
2018-07-03T19:34:18.617Z,41.20
2018-07-03T19:36:47.242Z,42.00
2018-07-03T19:39:15.782Z,42.40
2018-07-03T19:41:44.418Z,42.60
2018-07-03T19:44:12.936Z,43.00
2018-07-03T19:46:41.445Z,43.40
2018-07-03T19:49:10.056Z,43.60
2018-07-03T19:51:38.684Z,44.00
2018-07-03T19:54:07.185Z,44.50
2018-07-03T19:56:35.662Z,45.00
2018-07-03T19:59:04.581Z,45.60
2018-07-03T20:01:33.062Z,46.10
2018-07-03T20:04:01.559Z,45.90
2018-07-03T20:06:30.034Z,46.10
2018-07-03T20:08:58.508Z,46.10
2018-07-03T20:11:27.357Z,46.10
2018-07-03T20:13:55.995Z,46.40
2018-07-03T20:16:24.475Z,46.80
2018-07-03T20:18:52.991Z,47.30
2018-07-03T20:21:21.500Z,47.70
2018-07-03T20:23:49.978Z,48.10
2018-07-03T20:26:18.466Z,48.40
2018-07-03T20:28:46.937Z,48.80
2018-07-03T20:31:15.395Z,49.30
2018-07-03T20:33:43.882Z,49.70
2018-07-03T20:38:40.629Z,50.60
2018-07-03T20:41:10.051Z,50.90
2018-07-03T20:43:40.810Z,51.20
2018-07-03T20:46:09.909Z,51.40
2018-07-03T20:48:38.422Z,51.90
2018-07-03T20:51:06.975Z,52.50
2018-07-03T20:53:35.410Z,52.60
2018-07-03T20:56:03.909Z,52.90
2018-07-03T20:58:32.382Z,53.00
2018-07-03T21:01:00.842Z,53.00
2018-07-03T21:03:29.289Z,53.40
2018-07-03T21:05:58.285Z,53.60
2018-07-03T21:08:30.428Z,53.50
2018-07-03T21:10:58.997Z,53.50
2018-07-03T21:13:27.434Z,54.00
2018-07-03T21:15:55.877Z,53.90
2018-07-03T21:18:24.362Z,54.20
2018-07-03T21:20:52.781Z,54.20
2018-07-03T21:23:21.209Z,54.50
2018-07-03T21:25:49.686Z,54.60
2018-07-03T21:28:18.123Z,54.90
2018-07-03T21:30:46.558Z,55.70
2018-07-03T21:33:15.046Z,55.70
2018-07-03T21:35:43.522Z,55.90
2018-07-03T21:40:40.094Z,56.10
2018-07-03T21:43:08.541Z,56.10
2018-07-03T21:45:36.985Z,56.00
2018-07-03T21:48:05.466Z,56.10
2018-07-03T21:50:33.993Z,56.30
2018-07-03T21:53:02.443Z,56.20
2018-07-03T21:55:30.995Z,56.50
2018-07-03T21:57:59.479Z,56.50
2018-07-03T22:00:37.526Z,56.90
2018-07-03T22:03:07.829Z,57.10
2018-07-03T22:05:37.034Z,57.70
2018-07-03T22:08:05.575Z,58.00
2018-07-03T22:10:34.493Z,58.20
2018-07-03T22:13:03.474Z,58.00
2018-07-03T22:15:32.321Z,58.20
2018-07-03T22:18:00.785Z,58.30
2018-07-03T22:20:29.262Z,58.70
2018-07-03T22:22:57.730Z,59.00
2018-07-03T22:25:26.264Z,59.10
2018-07-03T22:27:54.792Z,59.20
2018-07-03T22:30:23.374Z,59.30
2018-07-03T22:32:52.042Z,59.40
2018-07-03T22:35:20.518Z,59.60
2018-07-03T22:37:48.998Z,59.60
2018-07-03T22:40:17.481Z,59.70
2018-07-03T22:42:45.970Z,59.80
2018-07-03T22:45:14.652Z,60.60
2018-07-03T22:47:43.101Z,61.00
2018-07-03T22:50:11.679Z,61.60
2018-07-03T22:52:40.189Z,61.70
2018-07-03T22:55:08.802Z,62.10
2018-07-03T22:57:37.253Z,63.10
2018-07-03T23:00:06.278Z,62.30
2018-07-03T23:02:34.734Z,62.50
2018-07-03T23:05:03.235Z,63.10
2018-07-03T23:07:31.760Z,63.30
2018-07-03T23:10:00.202Z,63.50
2018-07-03T23:12:28.639Z,63.70
2018-07-03T23:14:57.129Z,63.80
2018-07-03T23:17:25.598Z,64.00
2018-07-03T23:19:54.043Z,64.10
2018-07-03T23:22:22.494Z,64.70
2018-07-03T23:26:20.085Z,65.00
2018-07-03T23:28:48.590Z,65.50
2018-07-03T23:31:17.160Z,65.60
2018-07-03T23:33:45.578Z,66.00
2018-07-03T23:36:14.106Z,66.50
2018-07-03T23:38:42.522Z,66.90
2018-07-03T23:41:10.945Z,67.10
2018-07-03T23:43:39.422Z,67.50
2018-07-03T23:46:06.718Z,67.50
2018-07-03T23:48:46.237Z,67.80
2018-07-03T23:51:25.815Z,67.80
2018-07-03T23:54:05.511Z,67.80
2018-07-03T23:56:45.039Z,67.90
2018-07-03T23:59:24.806Z,68.50
